Time;durP1;ratioP1;P1;durP2;ratioP2;P2;SDS_P1;SDS_P2;PMS_P1;PMS_P2;Temp;Humidity;BMP_temperature;BMP_pressure;BME280_temperature;BME280_humidity;BME280_pressure;Samples;Min_cycle;Max_cycle;Signal;HPM_P1;HPM_P2
2021/09/17 00:00:43;;;;;;;3.15;1.20;;;;;;;;;;5073390;28;20059;-77
2021/09/17 00:03:09;;;;;;;2.28;1.17;;;;;;;;;;5086524;28;20028;-78
2021/09/17 00:05:36;;;;;;;2.40;1.10;;;;;;;;;;5060204;28;20055;-77
2021/09/17 00:08:02;;;;;;;2.97;1.15;;;;;;;;;;5066657;28;20106;-77
2021/09/17 00:10:28;;;;;;;1.60;1.10;;;;;;;;;;5081299;27;20067;-78
2021/09/17 00:12:55;;;;;;;2.63;1.20;;;;;;;;;;5084802;28;20063;-77
2021/09/17 00:15:22;;;;;;;2.30;1.25;;;;;;;;;;5076533;28;20061;-77
2021/09/17 00:17:48;;;;;;;2.15;1.27;;;;;;;;;;5084462;28;20148;-77
2021/09/17 00:20:15;;;;;;;1.58;1.00;;;;;;;;;;5085047;28;20588;-78
2021/09/17 00:22:42;;;;;;;1.80;1.05;;;;;;;;;;5083771;28;21102;-79
2021/09/17 00:25:09;;;;;;;2.10;0.88;;;;;;;;;;5086700;28;20557;-79
2021/09/17 00:27:36;;;;;;;1.25;0.82;;;;;;;;;;5076942;28;20060;-79
2021/09/17 00:30:03;;;;;;;1.45;1.00;;;;;;;;;;5084639;28;20063;-79
2021/09/17 00:32:29;;;;;;;1.80;1.10;;;;;;;;;;5084745;28;20048;-80
2021/09/17 00:34:55;;;;;;;1.60;0.95;;;;;;;;;;5086645;28;20078;-78
2021/09/17 00:37:22;;;;;;;1.52;1.00;;;;;;;;;;5084885;28;20462;-79
2021/09/17 00:39:48;;;;;;;1.60;1.10;;;;;;;;;;5086426;28;20514;-77
2021/09/17 00:42:15;;;;;;;1.52;1.00;;;;;;;;;;5086024;28;20036;-78
2021/09/17 00:44:41;;;;;;;1.27;0.88;;;;;;;;;;5060287;28;20040;-77
2021/09/17 00:47:07;;;;;;;1.65;0.90;;;;;;;;;;5080028;28;20508;-77
2021/09/17 00:49:34;;;;;;;1.40;1.00;;;;;;;;;;5070179;28;20113;-77
2021/09/17 00:52:00;;;;;;;1.45;0.95;;;;;;;;;;5060598;28;20109;-78
2021/09/17 00:54:28;;;;;;;1.52;1.08;;;;;;;;;;5062038;28;20056;-77
2021/09/17 00:56:54;;;;;;;1.65;0.88;;;;;;;;;;5049847;28;20086;-77
2021/09/17 00:59:21;;;;;;;1.05;0.80;;;;;;;;;;5063679;28;20057;-78
2021/09/17 01:01:47;;;;;;;1.65;0.90;;;;;;;;;;5064519;28;20052;-78
2021/09/17 01:04:14;;;;;;;1.40;0.90;;;;;;;;;;5056765;28;20072;-78
2021/09/17 01:06:40;;;;;;;1.20;0.80;;;;;;;;;;5058486;28;20573;-78
2021/09/17 01:09:07;;;;;;;1.40;0.93;;;;;;;;;;5084687;28;20052;-79
2021/09/17 01:11:34;;;;;;;1.20;0.60;;;;;;;;;;5087356;28;20028;-77
2021/09/17 01:14:01;;;;;;;1.08;0.70;;;;;;;;;;5080223;28;20063;-78
2021/09/17 01:16:27;;;;;;;1.13;0.60;;;;;;;;;;5083405;28;20056;-77
2021/09/17 01:18:54;;;;;;;0.93;0.70;;;;;;;;;;5063592;28;20028;-76
2021/09/17 01:21:21;;;;;;;1.15;0.80;;;;;;;;;;5062499;28;20078;-78
2021/09/17 01:23:48;;;;;;;1.23;0.80;;;;;;;;;;5074540;28;20063;-79
2021/09/17 01:26:15;;;;;;;1.10;0.80;;;;;;;;;;5082889;28;20028;-79
2021/09/17 01:28:41;;;;;;;1.05;0.60;;;;;;;;;;5053394;28;20056;-79
2021/09/17 01:31:08;;;;;;;0.90;0.60;;;;;;;;;;5075318;28;20052;-79
2021/09/17 01:33:35;;;;;;;1.92;0.80;;;;;;;;;;5063831;28;20060;-79
2021/09/17 01:36:06;;;;;;;1.45;0.80;;;;;;;;;;5047781;28;20056;-80
2021/09/17 01:38:33;;;;;;;1.13;0.70;;;;;;;;;;5068654;28;20064;-79
2021/09/17 01:41:00;;;;;;;0.93;0.65;;;;;;;;;;5062792;28;20089;-76
2021/09/17 01:43:26;;;;;;;1.73;0.70;;;;;;;;;;5069852;28;20040;-77
2021/09/17 01:45:53;;;;;;;1.85;0.70;;;;;;;;;;5069820;28;20055;-76
2021/09/17 01:48:19;;;;;;;1.15;0.80;;;;;;;;;;5060937;28;20070;-76
2021/09/17 01:50:45;;;;;;;1.58;0.90;;;;;;;;;;5084210;28;20055;-76
2021/09/17 01:53:12;;;;;;;1.02;0.63;;;;;;;;;;5072207;28;20064;-77
2021/09/17 01:55:38;;;;;;;1.00;0.65;;;;;;;;;;5074766;28;20067;-76
2021/09/17 01:58:05;;;;;;;0.95;0.70;;;;;;;;;;5081545;28;20084;-77
2021/09/17 02:00:31;;;;;;;0.80;0.50;;;;;;;;;;5080796;28;20074;-76
2021/09/17 02:02:58;;;;;;;1.30;0.70;;;;;;;;;;5065811;28;20755;-77
2021/09/17 02:05:25;;;;;;;1.20;0.70;;;;;;;;;;5084382;28;20078;-78
2021/09/17 02:07:51;;;;;;;1.08;0.60;;;;;;;;;;5084323;28;20067;-78
2021/09/17 02:10:18;;;;;;;0.98;0.60;;;;;;;;;;5084507;28;20060;-78
2021/09/17 02:12:45;;;;;;;1.10;0.60;;;;;;;;;;5080934;28;20067;-77
2021/09/17 02:15:11;;;;;;;0.77;0.60;;;;;;;;;;5082958;28;20052;-79
2021/09/17 02:17:38;;;;;;;1.00;0.60;;;;;;;;;;5084487;28;20055;-78
2021/09/17 02:20:05;;;;;;;0.95;0.50;;;;;;;;;;5084160;28;20079;-78
2021/09/17 02:22:33;;;;;;;0.38;0.35;;;;;;;;;;5082942;28;20125;-78
2021/09/17 02:25:01;;;;;;;0.80;0.50;;;;;;;;;;5078782;28;20056;-78
2021/09/17 02:27:27;;;;;;;0.95;0.43;;;;;;;;;;5086450;28;20047;-78
2021/09/17 02:29:54;;;;;;;1.52;0.60;;;;;;;;;;5082834;28;20064;-78
2021/09/17 02:32:20;;;;;;;0.65;0.30;;;;;;;;;;5082486;28;20056;-78
2021/09/17 02:34:46;;;;;;;0.90;0.50;;;;;;;;;;5082605;28;20060;-78
2021/09/17 02:37:13;;;;;;;0.52;0.40;;;;;;;;;;5083612;28;20040;-78
2021/09/17 02:39:39;;;;;;;0.82;0.50;;;;;;;;;;5085533;28;20063;-78
2021/09/17 02:42:06;;;;;;;1.48;0.52;;;;;;;;;;5083227;28;20071;-78
2021/09/17 02:44:33;;;;;;;1.02;0.47;;;;;;;;;;5086338;28;20062;-78
2021/09/17 02:46:59;;;;;;;0.63;0.50;;;;;;;;;;5085528;28;20109;-78
2021/09/17 02:49:25;;;;;;;0.45;0.30;;;;;;;;;;5085138;27;20059;-78
2021/09/17 02:51:52;;;;;;;0.70;0.50;;;;;;;;;;5085245;28;20511;-78
2021/09/17 02:54:18;;;;;;;0.60;0.30;;;;;;;;;;5086509;28;20067;-77
2021/09/17 02:56:44;;;;;;;0.52;0.35;;;;;;;;;;5085904;28;20067;-78
2021/09/17 02:59:11;;;;;;;0.60;0.50;;;;;;;;;;5081795;28;20528;-77
2021/09/17 03:01:37;;;;;;;0.60;0.40;;;;;;;;;;5085156;28;20125;-77
2021/09/17 03:04:04;;;;;;;0.80;0.50;;;;;;;;;;5067959;28;20071;-77
2021/09/17 03:06:30;;;;;;;1.40;0.40;;;;;;;;;;5084541;28;20105;-77
2021/09/17 03:08:56;;;;;;;1.08;0.52;;;;;;;;;;5086229;28;20047;-77
2021/09/17 03:11:23;;;;;;;0.93;0.47;;;;;;;;;;5086230;28;20059;-78
2021/09/17 03:13:49;;;;;;;2.15;0.55;;;;;;;;;;5065252;28;20056;-76
2021/09/17 03:16:16;;;;;;;0.50;0.32;;;;;;;;;;5087720;28;20059;-77
2021/09/17 03:18:42;;;;;;;0.70;0.47;;;;;;;;;;5084490;28;20032;-79
2021/09/17 03:21:08;;;;;;;0.55;0.38;;;;;;;;;;5084788;28;20079;-79
2021/09/17 03:23:35;;;;;;;0.63;0.45;;;;;;;;;;5050952;28;20029;-79
2021/09/17 03:26:01;;;;;;;0.73;0.35;;;;;;;;;;5081019;28;20173;-79
2021/09/17 03:28:28;;;;;;;0.45;0.30;;;;;;;;;;5068611;28;20118;-79
2021/09/17 03:30:54;;;;;;;0.63;0.40;;;;;;;;;;5086283;28;20125;-78
2021/09/17 03:33:21;;;;;;;0.73;0.50;;;;;;;;;;5082248;28;20125;-78
2021/09/17 03:35:47;;;;;;;0.60;0.38;;;;;;;;;;5085662;28;20055;-78
2021/09/17 03:38:14;;;;;;;0.77;0.43;;;;;;;;;;5083200;28;20376;-78
2021/09/17 03:40:41;;;;;;;0.63;0.40;;;;;;;;;;5056483;28;20478;-78
2021/09/17 03:43:07;;;;;;;0.50;0.30;;;;;;;;;;5083728;28;20475;-77
2021/09/17 03:45:36;;;;;;;0.73;0.50;;;;;;;;;;5066991;28;20081;-77
2021/09/17 03:48:06;;;;;;;0.60;0.40;;;;;;;;;;5084728;28;20060;-77
2021/09/17 03:50:33;;;;;;;0.65;0.50;;;;;;;;;;5084356;28;20132;-77
2021/09/17 03:53:00;;;;;;;0.70;0.40;;;;;;;;;;5084946;28;20055;-77
2021/09/17 03:55:26;;;;;;;0.65;0.40;;;;;;;;;;5082325;28;20043;-76
2021/09/17 03:57:53;;;;;;;0.50;0.40;;;;;;;;;;5086199;28;20051;-77
2021/09/17 04:00:19;;;;;;;0.70;0.40;;;;;;;;;;5080923;28;20064;-78
2021/09/17 04:02:46;;;;;;;0.40;0.30;;;;;;;;;;5085352;28;20056;-77
2021/09/17 04:05:12;;;;;;;0.38;0.30;;;;;;;;;;5084960;28;20093;-78
2021/09/17 04:07:39;;;;;;;0.57;0.40;;;;;;;;;;5083257;28;20131;-78
2021/09/17 04:10:07;;;;;;;1.00;0.50;;;;;;;;;;5068410;28;20574;-77
2021/09/17 04:12:33;;;;;;;0.47;0.32;;;;;;;;;;5080561;28;20573;-77
2021/09/17 04:15:00;;;;;;;0.73;0.47;;;;;;;;;;5065242;28;20352;-77
2021/09/17 04:17:27;;;;;;;2.05;0.60;;;;;;;;;;5066550;28;20052;-77
2021/09/17 04:19:53;;;;;;;0.40;0.32;;;;;;;;;;5060828;28;20071;-77
2021/09/17 04:22:20;;;;;;;0.68;0.40;;;;;;;;;;5078219;28;20067;-77
2021/09/17 04:24:46;;;;;;;0.25;0.20;;;;;;;;;;5086792;28;20051;-76
2021/09/17 04:27:13;;;;;;;0.45;0.30;;;;;;;;;;5062750;28;20068;-77
2021/09/17 04:29:39;;;;;;;1.33;0.40;;;;;;;;;;5077930;28;20124;-77
2021/09/17 04:32:06;;;;;;;0.55;0.20;;;;;;;;;;5084383;28;20142;-77
2021/09/17 04:34:32;;;;;;;0.22;0.22;;;;;;;;;;5083351;28;20473;-77
2021/09/17 04:36:58;;;;;;;0.30;0.28;;;;;;;;;;5066758;28;20048;-77
2021/09/17 04:39:25;;;;;;;1.73;0.57;;;;;;;;;;5082512;28;20056;-77
2021/09/17 04:41:51;;;;;;;2.28;0.60;;;;;;;;;;5083313;28;20059;-77
2021/09/17 04:44:18;;;;;;;0.93;0.50;;;;;;;;;;5081430;28;20499;-77
2021/09/17 04:46:44;;;;;;;1.60;0.52;;;;;;;;;;5084923;28;20063;-77
2021/09/17 04:49:10;;;;;;;1.85;0.60;;;;;;;;;;5067761;28;20048;-77
2021/09/17 04:51:37;;;;;;;3.63;0.82;;;;;;;;;;5083688;28;20056;-77
2021/09/17 04:54:04;;;;;;;6.25;0.80;;;;;;;;;;5076284;28;20064;-77
2021/09/17 04:56:30;;;;;;;1.52;0.50;;;;;;;;;;5075275;28;20076;-77
2021/09/17 04:58:57;;;;;;;2.85;0.60;;;;;;;;;;5064028;28;20052;-78
2021/09/17 05:01:23;;;;;;;2.03;0.90;;;;;;;;;;5064673;28;20070;-77
2021/09/17 05:03:50;;;;;;;0.70;0.35;;;;;;;;;;5085053;28;20505;-79
2021/09/17 05:06:17;;;;;;;1.95;0.50;;;;;;;;;;5073123;28;20063;-78
2021/09/17 05:08:43;;;;;;;0.93;0.45;;;;;;;;;;5066762;28;20561;-77
2021/09/17 05:11:10;;;;;;;3.08;0.50;;;;;;;;;;5064301;28;20068;-77
2021/09/17 05:13:36;;;;;;;1.70;0.40;;;;;;;;;;5080549;28;22834;-77
2021/09/17 05:16:03;;;;;;;4.05;0.50;;;;;;;;;;5081646;28;20063;-77
2021/09/17 05:18:29;;;;;;;0.50;0.30;;;;;;;;;;5066234;28;20123;-78
2021/09/17 05:20:56;;;;;;;2.53;0.65;;;;;;;;;;5080340;28;20059;-78
2021/09/17 05:23:22;;;;;;;4.25;0.60;;;;;;;;;;5082513;28;20033;-77
2021/09/17 05:25:49;;;;;;;1.85;0.60;;;;;;;;;;5079357;28;20127;-77
2021/09/17 05:28:15;;;;;;;1.63;0.30;;;;;;;;;;5065851;28;20060;-79
2021/09/17 05:30:41;;;;;;;3.85;0.70;;;;;;;;;;5062424;28;20063;-78
2021/09/17 05:33:08;;;;;;;3.55;1.02;;;;;;;;;;5058085;28;20476;-77
2021/09/17 05:35:34;;;;;;;1.30;0.60;;;;;;;;;;5064579;28;20056;-77
2021/09/17 05:38:01;;;;;;;1.05;0.30;;;;;;;;;;5069130;28;20599;-77
2021/09/17 05:40:27;;;;;;;2.47;0.40;;;;;;;;;;5080825;28;20066;-78
2021/09/17 05:42:54;;;;;;;2.30;0.40;;;;;;;;;;5084858;28;20105;-78
2021/09/17 05:45:20;;;;;;;2.00;0.50;;;;;;;;;;5071994;28;20067;-78
2021/09/17 05:47:46;;;;;;;1.73;0.50;;;;;;;;;;5051534;28;20090;-78
2021/09/17 05:50:13;;;;;;;1.33;0.38;;;;;;;;;;5067586;28;20060;-78
2021/09/17 05:52:40;;;;;;;2.13;0.45;;;;;;;;;;5062942;28;20052;-78
2021/09/17 05:55:07;;;;;;;2.00;0.63;;;;;;;;;;5076416;28;20075;-78
2021/09/17 05:57:33;;;;;;;1.48;0.30;;;;;;;;;;5059017;28;20052;-78
2021/09/17 06:00:00;;;;;;;1.92;0.60;;;;;;;;;;5059025;28;20068;-78
2021/09/17 06:02:26;;;;;;;1.48;0.40;;;;;;;;;;5069672;28;20120;-78
2021/09/17 06:04:53;;;;;;;1.67;0.40;;;;;;;;;;5061211;28;20055;-78
2021/09/17 06:07:19;;;;;;;2.17;0.30;;;;;;;;;;5085009;28;20471;-78
2021/09/17 06:09:45;;;;;;;1.75;0.40;;;;;;;;;;5058028;28;20101;-78
2021/09/17 06:12:12;;;;;;;2.50;0.40;;;;;;;;;;5084262;28;20048;-78
2021/09/17 06:14:38;;;;;;;2.65;0.30;;;;;;;;;;5082796;28;20067;-79
2021/09/17 06:17:05;;;;;;;1.00;0.40;;;;;;;;;;5081728;28;20059;-78
2021/09/17 06:19:31;;;;;;;2.53;0.40;;;;;;;;;;5081869;28;20089;-78
2021/09/17 06:21:57;;;;;;;1.67;0.30;;;;;;;;;;5071143;28;20048;-78
2021/09/17 06:24:24;;;;;;;0.70;0.30;;;;;;;;;;5062786;28;20066;-78
2021/09/17 06:26:50;;;;;;;0.88;0.35;;;;;;;;;;5062136;28;20117;-77
2021/09/17 06:29:17;;;;;;;4.13;0.50;;;;;;;;;;5068020;28;20117;-77
2021/09/17 06:31:43;;;;;;;1.67;0.50;;;;;;;;;;5066022;28;20341;-78
2021/09/17 06:34:10;;;;;;;1.17;0.40;;;;;;;;;;5074248;28;20523;-78
2021/09/17 06:36:36;;;;;;;0.45;0.20;;;;;;;;;;5082922;28;20071;-78
2021/09/17 06:39:03;;;;;;;0.65;0.35;;;;;;;;;;5051311;28;20056;-77
2021/09/17 06:41:29;;;;;;;1.10;0.40;;;;;;;;;;5061658;28;20448;-77
2021/09/17 06:43:56;;;;;;;0.95;0.40;;;;;;;;;;5071462;28;20044;-77
2021/09/17 06:46:23;;;;;;;1.67;0.40;;;;;;;;;;5072515;28;20136;-77
2021/09/17 06:48:49;;;;;;;1.05;0.20;;;;;;;;;;5078822;28;20679;-78
2021/09/17 06:51:15;;;;;;;0.65;0.20;;;;;;;;;;5083943;28;20052;-78
2021/09/17 06:53:42;;;;;;;0.80;0.22;;;;;;;;;;5082296;28;20585;-78
2021/09/17 06:56:10;;;;;;;2.08;0.40;;;;;;;;;;5073774;28;20487;-78
2021/09/17 06:58:36;;;;;;;1.15;0.30;;;;;;;;;;5062441;28;20082;-78
2021/09/17 07:01:03;;;;;;;1.17;0.20;;;;;;;;;;5063651;28;20068;-78
2021/09/17 07:03:29;;;;;;;1.08;0.30;;;;;;;;;;5038500;28;20279;-78
2021/09/17 07:05:56;;;;;;;0.82;0.30;;;;;;;;;;5066930;28;20044;-78
2021/09/17 07:08:23;;;;;;;0.40;0.20;;;;;;;;;;5077275;28;20068;-77
2021/09/17 07:10:50;;;;;;;1.25;0.40;;;;;;;;;;5080967;28;20064;-78
2021/09/17 07:13:16;;;;;;;1.35;0.40;;;;;;;;;;5081416;28;20056;-78
2021/09/17 07:15:43;;;;;;;0.57;0.30;;;;;;;;;;5071839;28;21505;-78
2021/09/17 07:18:10;;;;;;;1.20;0.30;;;;;;;;;;5084871;28;20059;-78
2021/09/17 07:20:38;;;;;;;0.60;0.20;;;;;;;;;;5081108;28;20076;-78
2021/09/17 07:23:04;;;;;;;0.47;0.25;;;;;;;;;;5082242;28;20492;-78
2021/09/17 07:25:31;;;;;;;0.52;0.22;;;;;;;;;;5053611;28;20048;-78
2021/09/17 07:27:58;;;;;;;0.60;0.30;;;;;;;;;;5066549;28;20068;-78
2021/09/17 07:30:24;;;;;;;0.20;0.10;;;;;;;;;;5049471;28;20098;-78
2021/09/17 07:32:52;;;;;;;0.52;0.32;;;;;;;;;;5068745;28;20052;-78
2021/09/17 07:35:18;;;;;;;0.20;0.20;;;;;;;;;;5058076;28;20094;-78
2021/09/17 07:37:45;;;;;;;0.55;0.20;;;;;;;;;;5059448;28;20056;-77
2021/09/17 07:40:14;;;;;;;1.67;0.40;;;;;;;;;;5074915;28;20051;-77
2021/09/17 07:42:41;;;;;;;0.98;0.20;;;;;;;;;;5084375;28;20554;-78
2021/09/17 07:45:08;;;;;;;1.60;0.30;;;;;;;;;;5084945;28;20052;-79
2021/09/17 07:47:34;;;;;;;1.27;0.30;;;;;;;;;;5072714;28;20562;-79
2021/09/17 07:50:01;;;;;;;0.90;0.20;;;;;;;;;;5080191;28;20047;-79
2021/09/17 07:52:27;;;;;;;1.25;0.52;;;;;;;;;;5064313;28;20396;-79
2021/09/17 07:54:54;;;;;;;0.60;0.30;;;;;;;;;;5071700;28;20072;-79
2021/09/17 07:57:20;;;;;;;0.20;0.10;;;;;;;;;;5049461;28;20553;-78
2021/09/17 07:59:46;;;;;;;0.43;0.20;;;;;;;;;;5064358;28;20032;-78
2021/09/17 08:02:13;;;;;;;1.80;0.20;;;;;;;;;;5074220;28;20060;-77
2021/09/17 08:04:39;;;;;;;0.38;0.17;;;;;;;;;;5067029;28;20113;-77
2021/09/17 08:07:06;;;;;;;0.38;0.17;;;;;;;;;;5070265;28;20071;-79
2021/09/17 08:09:33;;;;;;;0.95;0.20;;;;;;;;;;5069843;28;20161;-78
2021/09/17 08:12:00;;;;;;;0.20;0.20;;;;;;;;;;5044045;28;20063;-77
2021/09/17 08:14:26;;;;;;;1.00;0.30;;;;;;;;;;5064675;28;20068;-78
2021/09/17 08:16:53;;;;;;;0.43;0.17;;;;;;;;;;5072674;28;20056;-78
2021/09/17 08:19:19;;;;;;;0.52;0.20;;;;;;;;;;5078051;28;20052;-78
2021/09/17 08:21:45;;;;;;;0.47;0.20;;;;;;;;;;5071761;28;20061;-79
2021/09/17 08:24:16;;;;;;;0.82;0.20;;;;;;;;;;5067690;28;20098;-77
2021/09/17 08:26:43;;;;;;;0.97;0.30;;;;;;;;;;5066817;28;20527;-79
2021/09/17 08:29:10;;;;;;;0.38;0.15;;;;;;;;;;5074102;28;20052;-77
2021/09/17 08:31:36;;;;;;;0.82;0.20;;;;;;;;;;5078584;28;20052;-78
2021/09/17 08:34:03;;;;;;;0.35;0.20;;;;;;;;;;5064908;28;20055;-79
2021/09/17 08:36:30;;;;;;;0.10;0.10;;;;;;;;;;5046446;28;20500;-78
2021/09/17 08:38:56;;;;;;;0.95;0.30;;;;;;;;;;5061094;28;20102;-79
2021/09/17 08:41:24;;;;;;;0.40;0.28;;;;;;;;;;5062069;28;20059;-78
2021/09/17 08:43:50;;;;;;;0.95;0.20;;;;;;;;;;5067466;28;20059;-78
2021/09/17 08:46:17;;;;;;;0.10;0.10;;;;;;;;;;5064532;28;20056;-78
2021/09/17 08:48:44;;;;;;;0.28;0.15;;;;;;;;;;5080770;28;20114;-79
2021/09/17 08:51:10;;;;;;;0.38;0.17;;;;;;;;;;5053218;28;20156;-78
2021/09/17 08:53:36;;;;;;;0.10;0.10;;;;;;;;;;5065591;28;20162;-77
2021/09/17 08:56:07;;;;;;;0.20;0.15;;;;;;;;;;5062188;28;20040;-78
2021/09/17 08:58:34;;;;;;;0.55;0.38;;;;;;;;;;5070762;28;20103;-77
2021/09/17 09:01:00;;;;;;;0.10;0.10;;;;;;;;;;5062948;28;20570;-79
2021/09/17 09:03:28;;;;;;;0.52;0.30;;;;;;;;;;5065354;28;20060;-79
2021/09/17 09:05:55;;;;;;;1.00;0.40;;;;;;;;;;5054691;28;20056;-78
2021/09/17 09:08:24;;;;;;;0.50;0.25;;;;;;;;;;5075103;28;20063;-79
2021/09/17 09:10:51;;;;;;;0.30;0.20;;;;;;;;;;5071704;28;20103;-78
2021/09/17 09:13:18;;;;;;;0.25;0.20;;;;;;;;;;5073076;28;20102;-78
2021/09/17 09:15:44;;;;;;;0.17;0.17;;;;;;;;;;5084218;28;20047;-78
2021/09/17 09:18:16;;;;;;;0.20;0.10;;;;;;;;;;5082131;28;20051;-78
2021/09/17 09:20:43;;;;;;;0.45;0.25;;;;;;;;;;5063886;28;20399;-78
2021/09/17 09:23:13;;;;;;;0.20;0.10;;;;;;;;;;5050426;28;20052;-78
2021/09/17 09:25:58;;;;;;;0.68;0.28;;;;;;;;;;5077507;28;20067;-78
2021/09/17 09:28:26;;;;;;;1.25;0.10;;;;;;;;;;5082845;28;20491;-78
2021/09/17 09:30:53;;;;;;;0.35;0.20;;;;;;;;;;5079139;28;20529;-78
2021/09/17 09:33:20;;;;;;;0.20;0.20;;;;;;;;;;5063815;28;20098;-78
2021/09/17 09:35:47;;;;;;;1.20;0.30;;;;;;;;;;5064669;28;20032;-78
2021/09/17 09:38:27;;;;;;;0.80;0.20;;;;;;;;;;5086418;28;20055;-81
2021/09/17 09:40:59;;;;;;;0.30;0.20;;;;;;;;;;5081347;28;20516;-78
2021/09/17 09:43:29;;;;;;;0.43;0.28;;;;;;;;;;5064912;28;20056;-78
2021/09/17 09:45:57;;;;;;;0.95;0.22;;;;;;;;;;5064669;28;20057;-77
2021/09/17 09:48:24;;;;;;;0.43;0.30;;;;;;;;;;5082445;28;20815;-77
2021/09/17 09:50:50;;;;;;;1.05;0.30;;;;;;;;;;5082351;28;20055;-76
2021/09/17 09:53:16;;;;;;;0.35;0.20;;;;;;;;;;5078934;28;20060;-77
2021/09/17 09:55:43;;;;;;;0.13;0.13;;;;;;;;;;5063519;28;20153;-77
2021/09/17 09:58:10;;;;;;;0.45;0.17;;;;;;;;;;5068136;28;20118;-77
2021/09/17 10:00:38;;;;;;;0.15;0.15;;;;;;;;;;5055180;28;20056;-77
2021/09/17 10:03:04;;;;;;;1.17;0.30;;;;;;;;;;5071098;28;20056;-76
2021/09/17 10:05:32;;;;;;;0.30;0.28;;;;;;;;;;5092632;28;20102;-76
2021/09/17 10:07:58;;;;;;;0.52;0.20;;;;;;;;;;5052062;28;20052;-77
2021/09/17 10:10:25;;;;;;;0.20;0.20;;;;;;;;;;5064005;28;20504;-76
2021/09/17 10:12:51;;;;;;;0.30;0.20;;;;;;;;;;5069966;28;20064;-76
2021/09/17 10:15:18;;;;;;;0.60;0.30;;;;;;;;;;5061256;28;20072;-77
2021/09/17 10:17:50;;;;;;;0.20;0.20;;;;;;;;;;5062361;28;20444;-77
2021/09/17 10:20:17;;;;;;;0.35;0.25;;;;;;;;;;5076146;28;20072;-78
2021/09/17 10:22:44;;;;;;;0.40;0.20;;;;;;;;;;5062171;28;20044;-78
2021/09/17 10:25:20;;;;;;;0.45;0.30;;;;;;;;;;5068110;28;20504;-78
2021/09/17 10:28:05;;;;;;;0.43;0.30;;;;;;;;;;5073241;28;21276;-78
2021/09/17 10:30:32;;;;;;;0.85;0.30;;;;;;;;;;5098938;28;20032;-78
2021/09/17 10:32:59;;;;;;;0.52;0.20;;;;;;;;;;5082831;28;20063;-76
2021/09/17 10:35:26;;;;;;;0.30;0.22;;;;;;;;;;5072791;28;20060;-78
2021/09/17 10:38:16;;;;;;;0.75;0.30;;;;;;;;;;5068760;28;20115;-79
2021/09/17 10:40:44;;;;;;;0.75;0.20;;;;;;;;;;5077256;28;20067;-76
2021/09/17 10:43:10;;;;;;;0.22;0.22;;;;;;;;;;5085803;28;20063;-76
2021/09/17 10:45:57;;;;;;;0.40;0.20;;;;;;;;;;5058602;28;20063;-77
2021/09/17 10:48:23;;;;;;;1.00;0.30;;;;;;;;;;5081651;28;20039;-76
2021/09/17 10:50:53;;;;;;;1.35;0.25;;;;;;;;;;5078618;28;20090;-77
2021/09/17 10:53:38;;;;;;;0.65;0.30;;;;;;;;;;5075623;28;20036;-77
2021/09/17 10:56:04;;;;;;;0.63;0.40;;;;;;;;;;5074912;28;20767;-77
2021/09/17 10:58:32;;;;;;;0.50;0.20;;;;;;;;;;5051005;28;20078;-77
2021/09/17 11:01:06;;;;;;;0.60;0.30;;;;;;;;;;5065821;28;20068;-77
2021/09/17 11:03:42;;;;;;;0.52;0.20;;;;;;;;;;5048179;28;20029;-77
2021/09/17 11:06:29;;;;;;;0.52;0.30;;;;;;;;;;5069998;28;20458;-77
2021/09/17 11:08:57;;;;;;;0.22;0.22;;;;;;;;;;5064762;28;20037;-77
2021/09/17 11:11:33;;;;;;;0.20;0.20;;;;;;;;;;5087385;28;20074;-77
2021/09/17 11:14:00;;;;;;;0.20;0.13;;;;;;;;;;5087341;28;20196;-77
2021/09/17 11:16:28;;;;;;;0.70;0.30;;;;;;;;;;5088351;28;20059;-77
2021/09/17 11:18:57;;;;;;;0.30;0.20;;;;;;;;;;5088852;28;20074;-77
2021/09/17 11:21:24;;;;;;;0.28;0.28;;;;;;;;;;5080081;28;20125;-77
2021/09/17 11:23:53;;;;;;;0.38;0.28;;;;;;;;;;5087252;28;20071;-77
2021/09/17 11:26:21;;;;;;;0.40;0.30;;;;;;;;;;5085826;28;20056;-76
2021/09/17 11:28:58;;;;;;;0.40;0.30;;;;;;;;;;5088292;28;20104;-76
2021/09/17 11:31:32;;;;;;;0.50;0.30;;;;;;;;;;5085951;28;20487;-76
2021/09/17 11:33:59;;;;;;;0.45;0.20;;;;;;;;;;5077722;28;20033;-77
2021/09/17 11:36:44;;;;;;;0.63;0.30;;;;;;;;;;5073343;28;20569;-76
2021/09/17 11:39:32;;;;;;;0.45;0.30;;;;;;;;;;5065439;28;20114;-76
2021/09/17 11:42:00;;;;;;;0.28;0.22;;;;;;;;;;5083946;28;20097;-76
2021/09/17 11:44:34;;;;;;;0.35;0.20;;;;;;;;;;5074473;28;20474;-76
2021/09/17 11:47:01;;;;;;;0.20;0.20;;;;;;;;;;5085151;28;20048;-77
2021/09/17 11:49:29;;;;;;;0.68;0.30;;;;;;;;;;5060940;28;20024;-76
2021/09/17 11:51:57;;;;;;;0.65;0.22;;;;;;;;;;5082879;28;20067;-77
2021/09/17 11:54:23;;;;;;;0.75;0.35;;;;;;;;;;5073361;28;20515;-77
2021/09/17 11:56:59;;;;;;;0.50;0.30;;;;;;;;;;5054646;28;20772;-77
2021/09/17 11:59:34;;;;;;;0.50;0.30;;;;;;;;;;5075934;28;20109;-77
2021/09/17 12:02:14;;;;;;;0.70;0.30;;;;;;;;;;5063392;28;20511;-77
2021/09/17 12:04:41;;;;;;;0.30;0.20;;;;;;;;;;5063349;28;20547;-78
2021/09/17 12:07:08;;;;;;;0.20;0.20;;;;;;;;;;5073774;28;20067;-76
2021/09/17 12:09:34;;;;;;;0.30;0.28;;;;;;;;;;5071442;28;20091;-77
2021/09/17 12:12:01;;;;;;;0.68;0.30;;;;;;;;;;5074836;28;20028;-76
2021/09/17 12:14:27;;;;;;;0.30;0.20;;;;;;;;;;5055588;28;20581;-76
2021/09/17 12:17:01;;;;;;;0.45;0.30;;;;;;;;;;5084710;28;20117;-76
2021/09/17 12:19:28;;;;;;;0.63;0.30;;;;;;;;;;5086396;28;20620;-76
2021/09/17 12:21:59;;;;;;;0.43;0.30;;;;;;;;;;5067566;28;20503;-75
2021/09/17 12:24:27;;;;;;;0.20;0.20;;;;;;;;;;5083966;28;20060;-76
2021/09/17 12:27:00;;;;;;;0.50;0.25;;;;;;;;;;5083333;28;20488;-76
2021/09/17 12:29:26;;;;;;;0.28;0.20;;;;;;;;;;5065738;28;20441;-76
2021/09/17 12:31:53;;;;;;;0.85;0.30;;;;;;;;;;5074140;28;20063;-77
2021/09/17 12:34:22;;;;;;;0.22;0.22;;;;;;;;;;5053586;28;20056;-77
2021/09/17 12:36:50;;;;;;;0.32;0.20;;;;;;;;;;5069930;28;20461;-77
2021/09/17 12:39:20;;;;;;;0.43;0.30;;;;;;;;;;5089555;28;20133;-77
2021/09/17 12:41:48;;;;;;;0.25;0.20;;;;;;;;;;5077050;28;20292;-77
2021/09/17 12:44:17;;;;;;;1.13;0.40;;;;;;;;;;5065783;28;20085;-77
2021/09/17 12:46:45;;;;;;;0.30;0.28;;;;;;;;;;5058697;28;20032;-77
2021/09/17 12:49:18;;;;;;;0.50;0.30;;;;;;;;;;5063619;28;20068;-78
2021/09/17 12:51:55;;;;;;;0.55;0.40;;;;;;;;;;5068576;28;20105;-78
2021/09/17 12:54:22;;;;;;;1.25;0.60;;;;;;;;;;5063310;28;20056;-78
2021/09/17 12:56:48;;;;;;;0.77;0.20;;;;;;;;;;5068376;28;20087;-77
2021/09/17 12:59:17;;;;;;;0.73;0.30;;;;;;;;;;5062473;28;20108;-78
2021/09/17 13:01:46;;;;;;;0.40;0.17;;;;;;;;;;5076701;28;20545;-78
2021/09/17 13:04:13;;;;;;;0.90;0.40;;;;;;;;;;5077724;28;20056;-77
2021/09/17 13:06:40;;;;;;;1.13;0.40;;;;;;;;;;5082117;28;20052;-77
2021/09/17 13:09:06;;;;;;;0.90;0.40;;;;;;;;;;5081293;28;20489;-77
2021/09/17 13:11:32;;;;;;;0.30;0.30;;;;;;;;;;5082592;28;20129;-76
2021/09/17 13:13:59;;;;;;;0.32;0.30;;;;;;;;;;5083742;28;20067;-75
2021/09/17 13:16:25;;;;;;;0.65;0.40;;;;;;;;;;5050826;28;20132;-77
2021/09/17 13:18:52;;;;;;;0.20;0.20;;;;;;;;;;5068643;28;20057;-77
2021/09/17 13:21:19;;;;;;;1.35;0.30;;;;;;;;;;5063986;28;20504;-78
2021/09/17 13:23:45;;;;;;;0.45;0.30;;;;;;;;;;5082140;28;20060;-77
2021/09/17 13:26:12;;;;;;;0.47;0.30;;;;;;;;;;5085045;28;20036;-77
2021/09/17 13:28:38;;;;;;;0.30;0.30;;;;;;;;;;5085983;28;20055;-77
2021/09/17 13:31:06;;;;;;;0.45;0.10;;;;;;;;;;5083807;28;20125;-77
2021/09/17 13:33:32;;;;;;;0.82;0.20;;;;;;;;;;5081305;28;20051;-77
2021/09/17 13:35:59;;;;;;;0.45;0.28;;;;;;;;;;5083684;28;20078;-79
2021/09/17 13:38:25;;;;;;;0.30;0.30;;;;;;;;;;5067993;28;20504;-79
2021/09/17 13:40:53;;;;;;;0.50;0.30;;;;;;;;;;5079732;28;20533;-79
2021/09/17 13:43:20;;;;;;;0.30;0.30;;;;;;;;;;5075393;28;20120;-78
2021/09/17 13:45:47;;;;;;;1.00;0.20;;;;;;;;;;5065989;28;20396;-78
2021/09/17 13:48:13;;;;;;;0.40;0.20;;;;;;;;;;5060786;28;20065;-79
2021/09/17 13:50:39;;;;;;;0.70;0.20;;;;;;;;;;5071137;28;20113;-79
2021/09/17 13:53:06;;;;;;;0.70;0.20;;;;;;;;;;5084694;28;20067;-78
2021/09/17 13:55:33;;;;;;;0.28;0.20;;;;;;;;;;5081531;28;20060;-79
2021/09/17 13:58:00;;;;;;;1.80;0.30;;;;;;;;;;5084425;28;20078;-78
2021/09/17 14:00:27;;;;;;;0.47;0.20;;;;;;;;;;5080425;28;20068;-76
2021/09/17 14:02:55;;;;;;;0.35;0.20;;;;;;;;;;5078353;28;20032;-77
2021/09/17 14:05:22;;;;;;;0.75;0.43;;;;;;;;;;5082114;28;20071;-78
2021/09/17 14:07:49;;;;;;;1.17;0.40;;;;;;;;;;5065807;28;20032;-78
2021/09/17 14:10:16;;;;;;;0.40;0.25;;;;;;;;;;5080364;28;20502;-77
2021/09/17 14:12:42;;;;;;;0.17;0.10;;;;;;;;;;5064286;28;20048;-78
2021/09/17 14:15:09;;;;;;;0.57;0.30;;;;;;;;;;5083634;28;20643;-77
2021/09/17 14:17:35;;;;;;;0.25;0.20;;;;;;;;;;5083814;28;20056;-77
2021/09/17 14:20:02;;;;;;;0.40;0.20;;;;;;;;;;5081023;28;20070;-77
2021/09/17 14:22:28;;;;;;;0.63;0.30;;;;;;;;;;5082987;28;20492;-77
2021/09/17 14:24:55;;;;;;;1.25;0.70;;;;;;;;;;5082218;28;20060;-78
2021/09/17 14:27:22;;;;;;;0.52;0.30;;;;;;;;;;5083133;28;20048;-78
2021/09/17 14:29:49;;;;;;;0.30;0.30;;;;;;;;;;5065471;28;20516;-78
2021/09/17 14:32:16;;;;;;;0.10;0.10;;;;;;;;;;5082724;28;20055;-77
2021/09/17 14:34:43;;;;;;;0.43;0.28;;;;;;;;;;5082696;28;20063;-78
2021/09/17 14:37:09;;;;;;;0.55;0.30;;;;;;;;;;5088245;28;20055;-77
2021/09/17 14:39:36;;;;;;;0.47;0.40;;;;;;;;;;5086556;28;20032;-77
2021/09/17 14:42:02;;;;;;;0.73;0.40;;;;;;;;;;5086907;28;20058;-77
2021/09/17 14:44:28;;;;;;;0.80;0.40;;;;;;;;;;5078199;28;20079;-78